sensor_id;sensor_type;location;lat;lon;timestamp;P1;durP1;ratioP1;P2;durP2;ratioP2
56239;SDS011;42154;51.992;5.896;2023-03-07T00:01:02;10.90;;;8.13;;
56239;SDS011;42154;51.992;5.896;2023-03-07T00:03:28;11.52;;;8.63;;
56239;SDS011;42154;51.992;5.896;2023-03-07T00:06:02;9.80;;;7.57;;
56239;SDS011;42154;51.992;5.896;2023-03-07T00:08:29;9.20;;;6.97;;
56239;SDS011;42154;51.992;5.896;2023-03-07T00:10:59;9.40;;;7.53;;
56239;SDS011;42154;51.992;5.896;2023-03-07T00:13:29;9.80;;;7.85;;
56239;SDS011;42154;51.992;5.896;2023-03-07T00:16:01;9.68;;;7.10;;
56239;SDS011;42154;51.992;5.896;2023-03-07T00:18:29;9.32;;;7.30;;
56239;SDS011;42154;51.992;5.896;2023-03-07T00:21:02;8.80;;;6.90;;
56239;SDS011;42154;51.992;5.896;2023-03-07T00:23:31;9.13;;;6.70;;
56239;SDS011;42154;51.992;5.896;2023-03-07T00:25:58;9.18;;;7.13;;
56239;SDS011;42154;51.992;5.896;2023-03-07T00:28:26;8.18;;;6.65;;
56239;SDS011;42154;51.992;5.896;2023-03-07T00:30:52;8.60;;;7.30;;
56239;SDS011;42154;51.992;5.896;2023-03-07T00:33:19;8.32;;;7.10;;
56239;SDS011;42154;51.992;5.896;2023-03-07T00:35:52;8.48;;;6.30;;
56239;SDS011;42154;51.992;5.896;2023-03-07T00:38:22;9.85;;;6.82;;
56239;SDS011;42154;51.992;5.896;2023-03-07T00:40:56;8.60;;;6.35;;
56239;SDS011;42154;51.992;5.896;2023-03-07T00:43:26;7.63;;;5.78;;
56239;SDS011;42154;51.992;5.896;2023-03-07T00:45:53;8.77;;;6.13;;
56239;SDS011;42154;51.992;5.896;2023-03-07T00:48:19;9.52;;;5.57;;
56239;SDS011;42154;51.992;5.896;2023-03-07T00:50:46;9.25;;;6.72;;
56239;SDS011;42154;51.992;5.896;2023-03-07T00:53:12;9.63;;;5.72;;
56239;SDS011;42154;51.992;5.896;2023-03-07T00:55:38;8.40;;;5.70;;
56239;SDS011;42154;51.992;5.896;2023-03-07T00:58:04;10.20;;;6.22;;
56239;SDS011;42154;51.992;5.896;2023-03-07T01:00:30;7.88;;;5.57;;
56239;SDS011;42154;51.992;5.896;2023-03-07T01:02:55;7.95;;;5.55;;
56239;SDS011;42154;51.992;5.896;2023-03-07T01:05:26;8.70;;;6.30;;
56239;SDS011;42154;51.992;5.896;2023-03-07T01:07:52;10.10;;;6.53;;
56239;SDS011;42154;51.992;5.896;2023-03-07T01:10:18;9.32;;;6.93;;
56239;SDS011;42154;51.992;5.896;2023-03-07T01:12:44;11.27;;;6.80;;
56239;SDS011;42154;51.992;5.896;2023-03-07T01:15:10;12.20;;;7.93;;
56239;SDS011;42154;51.992;5.896;2023-03-07T01:17:37;13.60;;;8.23;;
56239;SDS011;42154;51.992;5.896;2023-03-07T01:20:04;12.05;;;8.43;;
56239;SDS011;42154;51.992;5.896;2023-03-07T01:22:34;9.77;;;7.53;;
56239;SDS011;42154;51.992;5.896;2023-03-07T01:24:59;11.98;;;8.75;;
56239;SDS011;42154;51.992;5.896;2023-03-07T01:27:25;10.52;;;8.52;;
56239;SDS011;42154;51.992;5.896;2023-03-07T01:29:51;16.35;;;8.50;;
56239;SDS011;42154;51.992;5.896;2023-03-07T01:32:17;14.68;;;8.90;;
56239;SDS011;42154;51.992;5.896;2023-03-07T01:34:42;15.90;;;10.15;;
56239;SDS011;42154;51.992;5.896;2023-03-07T01:37:09;14.45;;;9.90;;
56239;SDS011;42154;51.992;5.896;2023-03-07T01:39:35;15.05;;;10.55;;
56239;SDS011;42154;51.992;5.896;2023-03-07T01:42:06;13.27;;;9.27;;
56239;SDS011;42154;51.992;5.896;2023-03-07T01:47:44;13.95;;;9.70;;
56239;SDS011;42154;51.992;5.896;2023-03-07T01:50:12;16.55;;;9.68;;
56239;SDS011;42154;51.992;5.896;2023-03-07T01:52:42;14.00;;;9.38;;
56239;SDS011;42154;51.992;5.896;2023-03-07T01:55:13;15.27;;;10.00;;
56239;SDS011;42154;51.992;5.896;2023-03-07T01:57:47;12.73;;;9.88;;
56239;SDS011;42154;51.992;5.896;2023-03-07T02:00:16;15.18;;;9.65;;
56239;SDS011;42154;51.992;5.896;2023-03-07T02:02:50;11.18;;;7.85;;
56239;SDS011;42154;51.992;5.896;2023-03-07T02:05:36;14.20;;;8.68;;
56239;SDS011;42154;51.992;5.896;2023-03-07T02:08:12;16.10;;;9.13;;
56239;SDS011;42154;51.992;5.896;2023-03-07T02:10:40;13.57;;;8.10;;
56239;SDS011;42154;51.992;5.896;2023-03-07T02:13:07;11.93;;;9.23;;
56239;SDS011;42154;51.992;5.896;2023-03-07T02:15:34;12.50;;;8.55;;
56239;SDS011;42154;51.992;5.896;2023-03-07T02:18:00;11.82;;;7.85;;
56239;SDS011;42154;51.992;5.896;2023-03-07T02:23:33;13.38;;;7.28;;
56239;SDS011;42154;51.992;5.896;2023-03-07T02:26:31;9.32;;;7.28;;
56239;SDS011;42154;51.992;5.896;2023-03-07T02:29:02;10.23;;;7.20;;
56239;SDS011;42154;51.992;5.896;2023-03-07T02:31:30;11.63;;;7.65;;
56239;SDS011;42154;51.992;5.896;2023-03-07T02:33:56;13.30;;;8.60;;
56239;SDS011;42154;51.992;5.896;2023-03-07T02:36:23;11.48;;;7.82;;
56239;SDS011;42154;51.992;5.896;2023-03-07T02:39:22;10.68;;;8.40;;
56239;SDS011;42154;51.992;5.896;2023-03-07T02:41:51;10.30;;;6.70;;
56239;SDS011;42154;51.992;5.896;2023-03-07T02:44:27;9.23;;;7.05;;
56239;SDS011;42154;51.992;5.896;2023-03-07T02:46:53;12.98;;;7.90;;
56239;SDS011;42154;51.992;5.896;2023-03-07T02:49:22;12.15;;;8.15;;
56239;SDS011;42154;51.992;5.896;2023-03-07T02:51:48;10.93;;;6.82;;
56239;SDS011;42154;51.992;5.896;2023-03-07T02:54:14;11.10;;;7.40;;
56239;SDS011;42154;51.992;5.896;2023-03-07T02:56:40;12.05;;;6.95;;
56239;SDS011;42154;51.992;5.896;2023-03-07T02:59:06;9.63;;;6.68;;
56239;SDS011;42154;51.992;5.896;2023-03-07T03:01:32;8.85;;;6.75;;
56239;SDS011;42154;51.992;5.896;2023-03-07T03:03:58;9.13;;;6.68;;
56239;SDS011;42154;51.992;5.896;2023-03-07T03:06:24;9.32;;;6.03;;
56239;SDS011;42154;51.992;5.896;2023-03-07T03:08:50;10.05;;;6.70;;
56239;SDS011;42154;51.992;5.896;2023-03-07T03:11:15;12.82;;;7.10;;
56239;SDS011;42154;51.992;5.896;2023-03-07T03:13:41;12.15;;;6.47;;
56239;SDS011;42154;51.992;5.896;2023-03-07T03:16:07;8.77;;;6.00;;
56239;SDS011;42154;51.992;5.896;2023-03-07T03:18:32;12.32;;;6.60;;
56239;SDS011;42154;51.992;5.896;2023-03-07T03:20:59;8.70;;;5.80;;
56239;SDS011;42154;51.992;5.896;2023-03-07T03:23:27;8.68;;;5.72;;
56239;SDS011;42154;51.992;5.896;2023-03-07T03:26:01;8.18;;;5.95;;
56239;SDS011;42154;51.992;5.896;2023-03-07T03:28:33;9.00;;;5.32;;
56239;SDS011;42154;51.992;5.896;2023-03-07T03:31:00;9.18;;;5.32;;
56239;SDS011;42154;51.992;5.896;2023-03-07T03:33:30;8.80;;;4.82;;
56239;SDS011;42154;51.992;5.896;2023-03-07T03:35:58;7.32;;;4.88;;
56239;SDS011;42154;51.992;5.896;2023-03-07T03:38:25;7.72;;;4.70;;
56239;SDS011;42154;51.992;5.896;2023-03-07T03:40:52;7.85;;;4.50;;
56239;SDS011;42154;51.992;5.896;2023-03-07T03:43:18;8.70;;;4.60;;
56239;SDS011;42154;51.992;5.896;2023-03-07T03:45:52;11.48;;;5.28;;
56239;SDS011;42154;51.992;5.896;2023-03-07T03:48:24;12.30;;;4.80;;
56239;SDS011;42154;51.992;5.896;2023-03-07T03:50:58;10.52;;;5.75;;
56239;SDS011;42154;51.992;5.896;2023-03-07T03:53:24;8.38;;;5.13;;
56239;SDS011;42154;51.992;5.896;2023-03-07T03:55:50;9.88;;;5.47;;
56239;SDS011;42154;51.992;5.896;2023-03-07T03:58:16;8.02;;;4.70;;
56239;SDS011;42154;51.992;5.896;2023-03-07T04:00:42;12.23;;;5.43;;
56239;SDS011;42154;51.992;5.896;2023-03-07T04:03:08;12.65;;;6.38;;
56239;SDS011;42154;51.992;5.896;2023-03-07T04:05:34;12.80;;;5.30;;
56239;SDS011;42154;51.992;5.896;2023-03-07T04:08:00;12.07;;;5.45;;
56239;SDS011;42154;51.992;5.896;2023-03-07T04:10:25;9.75;;;4.93;;
56239;SDS011;42154;51.992;5.896;2023-03-07T04:12:51;11.82;;;5.40;;
56239;SDS011;42154;51.992;5.896;2023-03-07T04:15:17;12.13;;;5.10;;
56239;SDS011;42154;51.992;5.896;2023-03-07T04:17:43;8.85;;;5.75;;
56239;SDS011;42154;51.992;5.896;2023-03-07T04:20:09;9.05;;;5.93;;
56239;SDS011;42154;51.992;5.896;2023-03-07T04:22:42;9.65;;;5.82;;
56239;SDS011;42154;51.992;5.896;2023-03-07T04:25:09;12.65;;;7.13;;
56239;SDS011;42154;51.992;5.896;2023-03-07T04:27:35;11.13;;;6.55;;
56239;SDS011;42154;51.992;5.896;2023-03-07T04:30:01;11.98;;;6.72;;
56239;SDS011;42154;51.992;5.896;2023-03-07T04:32:27;10.88;;;6.63;;
56239;SDS011;42154;51.992;5.896;2023-03-07T04:34:53;15.23;;;7.57;;
56239;SDS011;42154;51.992;5.896;2023-03-07T04:37:19;13.63;;;7.05;;
56239;SDS011;42154;51.992;5.896;2023-03-07T04:39:45;14.85;;;7.10;;
56239;SDS011;42154;51.992;5.896;2023-03-07T04:42:11;12.63;;;6.20;;
56239;SDS011;42154;51.992;5.896;2023-03-07T04:44:38;11.73;;;6.55;;
56239;SDS011;42154;51.992;5.896;2023-03-07T04:47:04;12.77;;;6.57;;
56239;SDS011;42154;51.992;5.896;2023-03-07T04:49:33;11.95;;;5.75;;
56239;SDS011;42154;51.992;5.896;2023-03-07T04:52:00;14.73;;;6.45;;
56239;SDS011;42154;51.992;5.896;2023-03-07T04:54:26;12.30;;;6.47;;
56239;SDS011;42154;51.992;5.896;2023-03-07T04:56:51;11.57;;;6.72;;
56239;SDS011;42154;51.992;5.896;2023-03-07T04:59:17;10.35;;;5.45;;
56239;SDS011;42154;51.992;5.896;2023-03-07T05:01:43;10.68;;;5.32;;
56239;SDS011;42154;51.992;5.896;2023-03-07T05:04:09;11.45;;;4.65;;
56239;SDS011;42154;51.992;5.896;2023-03-07T05:06:37;9.52;;;4.80;;
56239;SDS011;42154;51.992;5.896;2023-03-07T05:09:03;9.05;;;5.63;;
56239;SDS011;42154;51.992;5.896;2023-03-07T05:11:30;13.68;;;6.05;;
56239;SDS011;42154;51.992;5.896;2023-03-07T05:13:55;8.07;;;4.85;;
56239;SDS011;42154;51.992;5.896;2023-03-07T05:16:22;12.55;;;5.65;;
56239;SDS011;42154;51.992;5.896;2023-03-07T05:18:48;8.68;;;4.72;;
56239;SDS011;42154;51.992;5.896;2023-03-07T05:21:14;17.30;;;5.60;;
56239;SDS011;42154;51.992;5.896;2023-03-07T05:23:40;7.85;;;4.97;;
56239;SDS011;42154;51.992;5.896;2023-03-07T05:26:07;10.23;;;5.88;;
56239;SDS011;42154;51.992;5.896;2023-03-07T05:28:33;9.52;;;5.97;;
56239;SDS011;42154;51.992;5.896;2023-03-07T05:30:59;8.18;;;5.20;;
56239;SDS011;42154;51.992;5.896;2023-03-07T05:33:25;8.68;;;4.68;;
56239;SDS011;42154;51.992;5.896;2023-03-07T05:35:51;11.63;;;5.53;;
56239;SDS011;42154;51.992;5.896;2023-03-07T05:38:21;5.22;;;3.83;;
56239;SDS011;42154;51.992;5.896;2023-03-07T05:40:47;11.30;;;5.72;;
56239;SDS011;42154;51.992;5.896;2023-03-07T05:43:13;10.20;;;6.45;;
56239;SDS011;42154;51.992;5.896;2023-03-07T05:45:39;8.18;;;5.20;;
56239;SDS011;42154;51.992;5.896;2023-03-07T05:48:05;7.93;;;5.45;;
56239;SDS011;42154;51.992;5.896;2023-03-07T05:50:31;9.30;;;5.25;;
56239;SDS011;42154;51.992;5.896;2023-03-07T05:52:57;12.00;;;4.47;;
56239;SDS011;42154;51.992;5.896;2023-03-07T05:55:26;11.30;;;4.13;;
56239;SDS011;42154;51.992;5.896;2023-03-07T05:57:52;7.15;;;3.42;;
56239;SDS011;42154;51.992;5.896;2023-03-07T06:00:18;8.48;;;3.22;;
56239;SDS011;42154;51.992;5.896;2023-03-07T06:02:51;9.10;;;3.70;;
56239;SDS011;42154;51.992;5.896;2023-03-07T06:05:17;8.48;;;3.40;;
56239;SDS011;42154;51.992;5.896;2023-03-07T06:07:43;5.35;;;3.63;;
56239;SDS011;42154;51.992;5.896;2023-03-07T06:10:11;6.15;;;2.70;;
56239;SDS011;42154;51.992;5.896;2023-03-07T06:12:37;5.63;;;3.10;;
56239;SDS011;42154;51.992;5.896;2023-03-07T06:15:03;7.47;;;3.20;;
56239;SDS011;42154;51.992;5.896;2023-03-07T06:17:32;5.97;;;3.22;;
56239;SDS011;42154;51.992;5.896;2023-03-07T06:19:58;7.47;;;3.15;;
56239;SDS011;42154;51.992;5.896;2023-03-07T06:22:24;5.32;;;3.10;;
56239;SDS011;42154;51.992;5.896;2023-03-07T06:24:50;6.43;;;3.00;;
56239;SDS011;42154;51.992;5.896;2023-03-07T06:27:16;7.65;;;2.55;;
56239;SDS011;42154;51.992;5.896;2023-03-07T06:29:42;3.88;;;1.42;;
56239;SDS011;42154;51.992;5.896;2023-03-07T06:32:07;3.08;;;1.38;;
56239;SDS011;42154;51.992;5.896;2023-03-07T06:34:35;7.35;;;1.23;;
56239;SDS011;42154;51.992;5.896;2023-03-07T06:37:01;4.80;;;1.15;;
56239;SDS011;42154;51.992;5.896;2023-03-07T06:39:27;3.05;;;1.27;;
56239;SDS011;42154;51.992;5.896;2023-03-07T06:41:53;5.85;;;1.08;;
56239;SDS011;42154;51.992;5.896;2023-03-07T06:44:19;6.00;;;1.58;;
56239;SDS011;42154;51.992;5.896;2023-03-07T06:46:45;4.28;;;1.00;;
56239;SDS011;42154;51.992;5.896;2023-03-07T06:49:13;2.58;;;0.85;;
56239;SDS011;42154;51.992;5.896;2023-03-07T06:51:40;3.95;;;1.33;;
56239;SDS011;42154;51.992;5.896;2023-03-07T06:54:06;3.08;;;0.90;;
56239;SDS011;42154;51.992;5.896;2023-03-07T06:56:32;1.98;;;0.80;;
56239;SDS011;42154;51.992;5.896;2023-03-07T06:58:59;4.30;;;1.08;;
56239;SDS011;42154;51.992;5.896;2023-03-07T07:01:26;2.95;;;0.80;;
56239;SDS011;42154;51.992;5.896;2023-03-07T07:03:54;2.80;;;0.85;;
56239;SDS011;42154;51.992;5.896;2023-03-07T07:06:20;4.00;;;1.33;;
56239;SDS011;42154;51.992;5.896;2023-03-07T07:08:47;3.05;;;1.10;;
56239;SDS011;42154;51.992;5.896;2023-03-07T07:11:13;6.32;;;1.05;;
56239;SDS011;42154;51.992;5.896;2023-03-07T07:13:40;3.63;;;1.00;;
56239;SDS011;42154;51.992;5.896;2023-03-07T07:16:07;6.63;;;1.23;;
56239;SDS011;42154;51.992;5.896;2023-03-07T07:18:36;3.60;;;1.00;;
56239;SDS011;42154;51.992;5.896;2023-03-07T07:21:04;4.43;;;1.40;;
56239;SDS011;42154;51.992;5.896;2023-03-07T07:23:30;4.88;;;1.33;;
56239;SDS011;42154;51.992;5.896;2023-03-07T07:25:57;5.78;;;1.35;;
56239;SDS011;42154;51.992;5.896;2023-03-07T07:28:23;4.85;;;1.30;;
56239;SDS011;42154;51.992;5.896;2023-03-07T07:30:49;4.53;;;1.40;;
56239;SDS011;42154;51.992;5.896;2023-03-07T07:33:15;4.00;;;1.27;;
56239;SDS011;42154;51.992;5.896;2023-03-07T07:35:44;4.85;;;1.40;;
56239;SDS011;42154;51.992;5.896;2023-03-07T07:38:11;6.18;;;1.70;;
56239;SDS011;42154;51.992;5.896;2023-03-07T07:40:38;3.67;;;1.52;;
56239;SDS011;42154;51.992;5.896;2023-03-07T07:43:04;3.92;;;1.27;;
56239;SDS011;42154;51.992;5.896;2023-03-07T07:45:37;4.40;;;1.30;;
56239;SDS011;42154;51.992;5.896;2023-03-07T07:48:05;3.75;;;1.10;;
56239;SDS011;42154;51.992;5.896;2023-03-07T07:50:31;3.90;;;1.20;;
56239;SDS011;42154;51.992;5.896;2023-03-07T07:52:56;3.47;;;1.50;;
56239;SDS011;42154;51.992;5.896;2023-03-07T07:55:23;3.05;;;1.52;;
56239;SDS011;42154;51.992;5.896;2023-03-07T07:57:50;4.25;;;1.45;;
56239;SDS011;42154;51.992;5.896;2023-03-07T08:00:16;4.97;;;1.60;;
56239;SDS011;42154;51.992;5.896;2023-03-07T08:02:48;6.35;;;1.65;;
56239;SDS011;42154;51.992;5.896;2023-03-07T08:05:14;3.45;;;1.20;;
56239;SDS011;42154;51.992;5.896;2023-03-07T08:07:41;2.13;;;1.30;;
56239;SDS011;42154;51.992;5.896;2023-03-07T08:10:07;2.72;;;1.27;;
56239;SDS011;42154;51.992;5.896;2023-03-07T08:12:34;4.28;;;1.30;;
56239;SDS011;42154;51.992;5.896;2023-03-07T08:15:00;1.95;;;1.10;;
56239;SDS011;42154;51.992;5.896;2023-03-07T08:17:27;4.10;;;1.50;;
56239;SDS011;42154;51.992;5.896;2023-03-07T08:19:54;1.92;;;1.00;;
56239;SDS011;42154;51.992;5.896;2023-03-07T08:22:19;3.42;;;1.17;;
56239;SDS011;42154;51.992;5.896;2023-03-07T08:24:46;4.28;;;1.27;;
56239;SDS011;42154;51.992;5.896;2023-03-07T08:27:14;2.40;;;1.25;;
56239;SDS011;42154;51.992;5.896;2023-03-07T08:29:40;2.80;;;1.20;;
56239;SDS011;42154;51.992;5.896;2023-03-07T08:32:06;3.03;;;1.42;;
56239;SDS011;42154;51.992;5.896;2023-03-07T08:34:32;3.28;;;1.75;;
56239;SDS011;42154;51.992;5.896;2023-03-07T08:36:58;2.65;;;1.90;;
56239;SDS011;42154;51.992;5.896;2023-03-07T08:39:23;3.53;;;2.00;;
56239;SDS011;42154;51.992;5.896;2023-03-07T08:41:49;3.25;;;1.98;;
56239;SDS011;42154;51.992;5.896;2023-03-07T08:44:15;4.10;;;2.00;;
56239;SDS011;42154;51.992;5.896;2023-03-07T08:46:41;4.65;;;2.72;;
56239;SDS011;42154;51.992;5.896;2023-03-07T08:49:06;4.07;;;2.72;;
56239;SDS011;42154;51.992;5.896;2023-03-07T08:51:32;2.97;;;2.40;;
56239;SDS011;42154;51.992;5.896;2023-03-07T08:53:59;3.67;;;2.83;;
56239;SDS011;42154;51.992;5.896;2023-03-07T08:56:24;5.05;;;3.10;;
56239;SDS011;42154;51.992;5.896;2023-03-07T08:58:51;5.70;;;3.47;;
56239;SDS011;42154;51.992;5.896;2023-03-07T09:01:18;5.40;;;3.70;;
56239;SDS011;42154;51.992;5.896;2023-03-07T09:03:44;5.70;;;3.20;;
56239;SDS011;42154;51.992;5.896;2023-03-07T09:06:16;4.53;;;3.50;;
56239;SDS011;42154;51.992;5.896;2023-03-07T09:08:43;5.45;;;3.50;;
56239;SDS011;42154;51.992;5.896;2023-03-07T09:11:09;6.07;;;3.80;;
56239;SDS011;42154;51.992;5.896;2023-03-07T09:13:35;4.85;;;3.63;;
56239;SDS011;42154;51.992;5.896;2023-03-07T09:16:04;4.68;;;3.80;;
56239;SDS011;42154;51.992;5.896;2023-03-07T09:18:30;4.18;;;3.70;;
56239;SDS011;42154;51.992;5.896;2023-03-07T09:21:00;4.85;;;3.30;;
56239;SDS011;42154;51.992;5.896;2023-03-07T09:23:26;4.65;;;3.47;;
56239;SDS011;42154;51.992;5.896;2023-03-07T09:25:52;5.38;;;3.92;;
56239;SDS011;42154;51.992;5.896;2023-03-07T09:28:18;5.30;;;3.70;;
56239;SDS011;42154;51.992;5.896;2023-03-07T09:30:44;5.30;;;3.83;;
56239;SDS011;42154;51.992;5.896;2023-03-07T09:33:09;5.57;;;3.60;;
56239;SDS011;42154;51.992;5.896;2023-03-07T09:35:36;5.22;;;3.78;;
56239;SDS011;42154;51.992;5.896;2023-03-07T09:38:03;4.45;;;3.50;;
56239;SDS011;42154;51.992;5.896;2023-03-07T09:40:29;4.72;;;3.88;;
56239;SDS011;42154;51.992;5.896;2023-03-07T09:49:30;3.95;;;3.50;;
56239;SDS011;42154;51.992;5.896;2023-03-07T09:52:19;4.22;;;3.83;;
56239;SDS011;42154;51.992;5.896;2023-03-07T09:54:55;6.18;;;4.18;;
56239;SDS011;42154;51.992;5.896;2023-03-07T09:57:36;4.85;;;3.55;;
56239;SDS011;42154;51.992;5.896;2023-03-07T10:07:55;5.57;;;3.75;;
56239;SDS011;42154;51.992;5.896;2023-03-07T10:10:33;5.50;;;3.92;;
56239;SDS011;42154;51.992;5.896;2023-03-07T10:15:46;4.30;;;3.30;;
56239;SDS011;42154;51.992;5.896;2023-03-07T10:18:24;4.20;;;3.22;;
56239;SDS011;42154;51.992;5.896;2023-03-07T10:28:40;4.60;;;3.42;;
56239;SDS011;42154;51.992;5.896;2023-03-07T10:31:16;3.25;;;2.90;;
56239;SDS011;42154;51.992;5.896;2023-03-07T10:33:51;3.50;;;2.55;;
56239;SDS011;42154;51.992;5.896;2023-03-07T10:37:03;4.78;;;3.22;;
56239;SDS011;42154;51.992;5.896;2023-03-07T10:39:15;4.18;;;3.60;;
56239;SDS011;42154;51.992;5.896;2023-03-07T10:42:10;2.85;;;2.55;;
56239;SDS011;42154;51.992;5.896;2023-03-07T10:44:37;3.40;;;3.10;;
56239;SDS011;42154;51.992;5.896;2023-03-07T10:47:04;4.82;;;3.50;;
56239;SDS011;42154;51.992;5.896;2023-03-07T10:49:41;4.75;;;3.00;;
56239;SDS011;42154;51.992;5.896;2023-03-07T10:52:33;4.03;;;2.63;;
56239;SDS011;42154;51.992;5.896;2023-03-07T10:58:18;3.10;;;2.67;;
56239;SDS011;42154;51.992;5.896;2023-03-07T11:00:45;3.08;;;2.28;;
56239;SDS011;42154;51.992;5.896;2023-03-07T11:03:32;2.40;;;1.73;;
56239;SDS011;42154;51.992;5.896;2023-03-07T11:11:39;4.15;;;2.13;;
56239;SDS011;42154;51.992;5.896;2023-03-07T11:14:19;3.15;;;1.98;;
56239;SDS011;42154;51.992;5.896;2023-03-07T11:22:18;3.42;;;1.67;;
56239;SDS011;42154;51.992;5.896;2023-03-07T11:24:49;2.08;;;1.55;;
56239;SDS011;42154;51.992;5.896;2023-03-07T11:27:46;2.75;;;1.50;;
56239;SDS011;42154;51.992;5.896;2023-03-07T11:30:34;1.58;;;1.25;;
56239;SDS011;42154;51.992;5.896;2023-03-07T11:33:21;2.85;;;1.45;;
56239;SDS011;42154;51.992;5.896;2023-03-07T11:46:02;2.95;;;1.58;;
56239;SDS011;42154;51.992;5.896;2023-03-07T11:54:06;5.13;;;1.80;;
56239;SDS011;42154;51.992;5.896;2023-03-07T11:56:43;3.15;;;1.45;;
56239;SDS011;42154;51.992;5.896;2023-03-07T12:01:58;3.42;;;1.48;;
56239;SDS011;42154;51.992;5.896;2023-03-07T12:08:08;3.00;;;1.58;;
56239;SDS011;42154;51.992;5.896;2023-03-07T12:10:27;2.67;;;1.60;;
56239;SDS011;42154;51.992;5.896;2023-03-07T12:13:33;2.90;;;1.52;;
56239;SDS011;42154;51.992;5.896;2023-03-07T12:19:05;2.67;;;1.50;;
56239;SDS011;42154;51.992;5.896;2023-03-07T12:24:16;4.53;;;1.75;;
56239;SDS011;42154;51.992;5.896;2023-03-07T12:26:56;3.08;;;1.67;;
56239;SDS011;42154;51.992;5.896;2023-03-07T12:29:33;2.55;;;1.90;;
56239;SDS011;42154;51.992;5.896;2023-03-07T12:32:07;1.98;;;1.30;;
56239;SDS011;42154;51.992;5.896;2023-03-07T12:34:42;4.45;;;1.75;;
56239;SDS011;42154;51.992;5.896;2023-03-07T12:37:15;2.40;;;1.20;;
56239;SDS011;42154;51.992;5.896;2023-03-07T12:45:44;1.40;;;0.60;;
56239;SDS011;42154;51.992;5.896;2023-03-07T12:48:21;2.03;;;1.00;;
56239;SDS011;42154;51.992;5.896;2023-03-07T12:50:57;2.28;;;0.73;;
56239;SDS011;42154;51.992;5.896;2023-03-07T12:56:45;4.53;;;0.80;;
56239;SDS011;42154;51.992;5.896;2023-03-07T12:59:22;4.40;;;0.80;;
56239;SDS011;42154;51.992;5.896;2023-03-07T13:04:47;1.58;;;0.45;;
56239;SDS011;42154;51.992;5.896;2023-03-07T13:07:21;0.60;;;0.43;;
56239;SDS011;42154;51.992;5.896;2023-03-07T13:09:50;2.60;;;0.60;;
56239;SDS011;42154;51.992;5.896;2023-03-07T14:04:23;2.17;;;0.70;;
56239;SDS011;42154;51.992;5.896;2023-03-07T14:06:54;2.42;;;0.70;;
56239;SDS011;42154;51.992;5.896;2023-03-07T14:09:26;3.22;;;0.68;;
56239;SDS011;42154;51.992;5.896;2023-03-07T14:25:25;2.42;;;0.70;;
56239;SDS011;42154;51.992;5.896;2023-03-07T14:27:58;1.65;;;0.60;;
56239;SDS011;42154;51.992;5.896;2023-03-07T14:30:26;2.72;;;0.50;;
56239;SDS011;42154;51.992;5.896;2023-03-07T14:32:54;2.13;;;0.60;;
56239;SDS011;42154;51.992;5.896;2023-03-07T14:35:40;0.55;;;0.35;;
56239;SDS011;42154;51.992;5.896;2023-03-07T14:38:21;1.23;;;0.40;;
56239;SDS011;42154;51.992;5.896;2023-03-07T14:40:55;1.58;;;0.60;;
56239;SDS011;42154;51.992;5.896;2023-03-07T14:51:31;2.45;;;0.63;;
56239;SDS011;42154;51.992;5.896;2023-03-07T14:54:03;2.70;;;0.85;;
56239;SDS011;42154;51.992;5.896;2023-03-07T14:56:32;2.45;;;0.90;;
56239;SDS011;42154;51.992;5.896;2023-03-07T14:58:58;4.88;;;0.70;;
56239;SDS011;42154;51.992;5.896;2023-03-07T15:01:30;4.63;;;0.80;;
56239;SDS011;42154;51.992;5.896;2023-03-07T15:03:59;3.47;;;0.98;;
56239;SDS011;42154;51.992;5.896;2023-03-07T15:06:26;3.45;;;1.10;;
56239;SDS011;42154;51.992;5.896;2023-03-07T15:08:54;3.03;;;1.02;;
56239;SDS011;42154;51.992;5.896;2023-03-07T15:11:29;3.47;;;1.10;;
56239;SDS011;42154;51.992;5.896;2023-03-07T15:14:03;3.47;;;1.63;;
56239;SDS011;42154;51.992;5.896;2023-03-07T15:16:34;1.98;;;1.17;;
56239;SDS011;42154;51.992;5.896;2023-03-07T15:21:46;2.83;;;1.08;;
56239;SDS011;42154;51.992;5.896;2023-03-07T15:24:19;3.72;;;1.13;;
56239;SDS011;42154;51.992;5.896;2023-03-07T15:26:52;3.55;;;1.00;;
56239;SDS011;42154;51.992;5.896;2023-03-07T15:29:21;1.80;;;1.00;;
56239;SDS011;42154;51.992;5.896;2023-03-07T15:31:55;4.22;;;1.10;;
56239;SDS011;42154;51.992;5.896;2023-03-07T15:34:24;2.17;;;0.82;;
56239;SDS011;42154;51.992;5.896;2023-03-07T15:36:51;2.60;;;0.80;;
56239;SDS011;42154;51.992;5.896;2023-03-07T15:44:51;3.03;;;1.15;;
56239;SDS011;42154;51.992;5.896;2023-03-07T15:47:22;4.15;;;1.17;;
56239;SDS011;42154;51.992;5.896;2023-03-07T15:49:50;3.85;;;1.02;;
56239;SDS011;42154;51.992;5.896;2023-03-07T15:52:26;2.33;;;1.30;;
56239;SDS011;42154;51.992;5.896;2023-03-07T15:54:53;3.03;;;1.40;;
56239;SDS011;42154;51.992;5.896;2023-03-07T15:57:25;4.60;;;1.50;;
56239;SDS011;42154;51.992;5.896;2023-03-07T16:05:25;4.97;;;1.67;;
56239;SDS011;42154;51.992;5.896;2023-03-07T16:07:54;2.38;;;1.75;;
56239;SDS011;42154;51.992;5.896;2023-03-07T16:10:25;4.47;;;1.40;;
56239;SDS011;42154;51.992;5.896;2023-03-07T16:12:54;2.00;;;1.25;;
56239;SDS011;42154;51.992;5.896;2023-03-07T16:15:21;4.70;;;1.70;;
56239;SDS011;42154;51.992;5.896;2023-03-07T16:17:48;2.88;;;2.10;;
56239;SDS011;42154;51.992;5.896;2023-03-07T16:20:18;2.10;;;1.30;;
56239;SDS011;42154;51.992;5.896;2023-03-07T16:22:48;3.95;;;1.80;;
56239;SDS011;42154;51.992;5.896;2023-03-07T16:25:14;5.03;;;1.73;;
56239;SDS011;42154;51.992;5.896;2023-03-07T16:27:43;3.05;;;1.50;;
56239;SDS011;42154;51.992;5.896;2023-03-07T16:30:14;3.33;;;1.42;;
56239;SDS011;42154;51.992;5.896;2023-03-07T16:32:41;2.30;;;1.20;;
56239;SDS011;42154;51.992;5.896;2023-03-07T16:35:12;3.15;;;1.40;;
56239;SDS011;42154;51.992;5.896;2023-03-07T16:37:39;3.85;;;1.50;;
56239;SDS011;42154;51.992;5.896;2023-03-07T16:40:05;2.65;;;1.30;;
56239;SDS011;42154;51.992;5.896;2023-03-07T16:42:32;2.70;;;1.27;;
56239;SDS011;42154;51.992;5.896;2023-03-07T16:44:58;3.88;;;1.63;;
56239;SDS011;42154;51.992;5.896;2023-03-07T16:47:24;4.07;;;1.88;;
56239;SDS011;42154;51.992;5.896;2023-03-07T16:49:50;2.42;;;1.50;;
56239;SDS011;42154;51.992;5.896;2023-03-07T16:52:15;3.85;;;1.77;;
56239;SDS011;42154;51.992;5.896;2023-03-07T16:54:41;3.08;;;1.63;;
56239;SDS011;42154;51.992;5.896;2023-03-07T16:57:11;2.45;;;1.65;;
56239;SDS011;42154;51.992;5.896;2023-03-07T16:59:41;2.42;;;1.70;;
56239;SDS011;42154;51.992;5.896;2023-03-07T17:02:14;3.00;;;1.90;;
56239;SDS011;42154;51.992;5.896;2023-03-07T17:04:42;3.80;;;2.00;;
56239;SDS011;42154;51.992;5.896;2023-03-07T17:09:44;2.78;;;1.42;;
56239;SDS011;42154;51.992;5.896;2023-03-07T17:12:10;2.38;;;1.73;;
56239;SDS011;42154;51.992;5.896;2023-03-07T17:14:36;3.35;;;2.00;;
56239;SDS011;42154;51.992;5.896;2023-03-07T17:17:03;3.83;;;2.33;;
56239;SDS011;42154;51.992;5.896;2023-03-07T17:19:29;4.28;;;2.55;;
56239;SDS011;42154;51.992;5.896;2023-03-07T17:21:57;5.93;;;2.80;;
56239;SDS011;42154;51.992;5.896;2023-03-07T17:24:24;4.28;;;2.60;;
56239;SDS011;42154;51.992;5.896;2023-03-07T17:26:51;4.50;;;2.97;;
56239;SDS011;42154;51.992;5.896;2023-03-07T17:29:32;3.92;;;3.03;;
56239;SDS011;42154;51.992;5.896;2023-03-07T17:32:03;6.70;;;4.10;;
56239;SDS011;42154;51.992;5.896;2023-03-07T17:34:30;4.85;;;3.53;;
56239;SDS011;42154;51.992;5.896;2023-03-07T17:36:59;5.00;;;2.92;;
56239;SDS011;42154;51.992;5.896;2023-03-07T17:39:26;5.18;;;2.85;;
56239;SDS011;42154;51.992;5.896;2023-03-07T17:41:53;5.60;;;2.70;;
56239;SDS011;42154;51.992;5.896;2023-03-07T17:44:19;5.18;;;2.90;;
56239;SDS011;42154;51.992;5.896;2023-03-07T17:46:45;3.92;;;2.20;;
56239;SDS011;42154;51.992;5.896;2023-03-07T17:49:11;3.65;;;2.50;;
56239;SDS011;42154;51.992;5.896;2023-03-07T17:51:37;4.35;;;2.80;;